Rhuddlan, United Kingdom
Current Conditions -  °F | °C
As of 8:50 PM on Monday 26 Jan 2015 (Local Time) from EGNR Reporting Station
Few Clouds Few Clouds  
Wind Chill:   Ceiling: Unl
Heat Index:   Visibility: 6mi
Dew Point:   Wind: 10mph
Humidity: 81%   Direction: 300°WNW
Pressure: 30.36"   Gusts: NA
Location:  53.28°N, 3.47°W
Report Text: EGNR 262050Z 30009KT 9999 FEW025 07/04 Q1028
Loading
Personal Weather Stations






























Interactive Weather Map New forecast layout! Learn more

10-Day Weather Forecast

Advertisements
Track Severe Weather on mobile